CheckWX is a tool to help pilots better visualize weather data.  It is not intended as a substitute for an official pre-flight weather briefing.

18:29:51 UTC

KFSW METAR
Fort Madison Municipal Airport
Fort Madison, Iowa, USA
Current

1 hour ago

KFSW 171715Z AUTO 00000KT 2SM -SN M03/M03 A2981 RMK AO2
Observed
Feb-17 @ 17:15 UTC
Visibility
2 SM
Conditions
Light Snow
Temperature
-3°C / 27°F
Dewpoint
-3°C / 27°F
Humidity
100%
Altimeter
29.81" Hg
Pressure
1009.52 hPa
Previous

2 hours ago

KFSW 171655Z AUTO 00000KT 2 1/2SM -SN OVC007 M03/M03 A2982 RMK AO2
Observed
Feb-17 @ 16:55 UTC
Visibility
2 1/2 SM
Flight Rules
IFR
Conditions
Light Snow
Cloud Levels
  • Overcast at 700' AGL
Temperature
-3°C / 27°F
Dewpoint
-3°C / 27°F
Humidity
100%
Altimeter
29.82" Hg
Pressure
1009.82 hPa
Previous

2 hours ago

KFSW 171635Z AUTO 11003KT 4SM BR OVC007 M03/M03 A2983 RMK AO2
Observed
Feb-17 @ 16:35 UTC
Wind
  • 110° at 3 KTS
Visibility
4 SM
Flight Rules
IFR
Conditions
Mist
Cloud Levels
  • Overcast at 700' AGL
Temperature
-3°C / 27°F
Dewpoint
-3°C / 27°F
Humidity
100%
Altimeter
29.83" Hg
Pressure
1010.12 hPa